sensor_id;sensor_type;location;lat;lon;timestamp;temperature;humidity
26503;DHT22;14177;51.520;6.764;2023-04-15T00:02:18;9.40;99.90
26503;DHT22;14177;51.520;6.764;2023-04-15T00:04:46;9.40;99.90
26503;DHT22;14177;51.520;6.764;2023-04-15T00:07:14;9.40;99.90
26503;DHT22;14177;51.520;6.764;2023-04-15T00:09:42;9.30;99.90
26503;DHT22;14177;51.520;6.764;2023-04-15T00:12:10;9.30;99.90
26503;DHT22;14177;51.520;6.764;2023-04-15T00:14:38;9.30;99.90
26503;DHT22;14177;51.520;6.764;2023-04-15T00:17:05;9.20;99.90
26503;DHT22;14177;51.520;6.764;2023-04-15T00:19:33;9.20;99.90
26503;DHT22;14177;51.520;6.764;2023-04-15T00:22:00;9.20;99.90
26503;DHT22;14177;51.520;6.764;2023-04-15T00:24:27;9.20;99.90
26503;DHT22;14177;51.520;6.764;2023-04-15T00:26:54;9.10;99.90
26503;DHT22;14177;51.520;6.764;2023-04-15T00:29:21;9.10;99.90
26503;DHT22;14177;51.520;6.764;2023-04-15T00:31:48;9.10;99.90
26503;DHT22;14177;51.520;6.764;2023-04-15T00:34:15;9.10;99.90
26503;DHT22;14177;51.520;6.764;2023-04-15T00:36:43;9.10;99.90
26503;DHT22;14177;51.520;6.764;2023-04-15T00:39:11;9.00;99.90
26503;DHT22;14177;51.520;6.764;2023-04-15T00:41:38;9.00;99.90
26503;DHT22;14177;51.520;6.764;2023-04-15T00:44:06;8.90;99.90
26503;DHT22;14177;51.520;6.764;2023-04-15T00:46:35;8.90;99.90
26503;DHT22;14177;51.520;6.764;2023-04-15T00:49:05;8.90;99.90
26503;DHT22;14177;51.520;6.764;2023-04-15T00:51:33;8.80;99.90
26503;DHT22;14177;51.520;6.764;2023-04-15T00:54:03;8.80;99.90
26503;DHT22;14177;51.520;6.764;2023-04-15T00:56:34;8.80;99.90
26503;DHT22;14177;51.520;6.764;2023-04-15T00:59:07;8.80;99.90
26503;DHT22;14177;51.520;6.764;2023-04-15T01:01:35;8.80;99.90
26503;DHT22;14177;51.520;6.764;2023-04-15T01:04:04;8.80;99.90
26503;DHT22;14177;51.520;6.764;2023-04-15T01:06:32;8.80;99.90
26503;DHT22;14177;51.520;6.764;2023-04-15T01:08:59;8.70;99.90
26503;DHT22;14177;51.520;6.764;2023-04-15T01:11:28;8.70;99.90
26503;DHT22;14177;51.520;6.764;2023-04-15T01:13:57;8.60;99.90
26503;DHT22;14177;51.520;6.764;2023-04-15T01:16:25;8.60;99.90
26503;DHT22;14177;51.520;6.764;2023-04-15T01:18:54;8.60;99.90
26503;DHT22;14177;51.520;6.764;2023-04-15T01:21:22;8.50;99.90
26503;DHT22;14177;51.520;6.764;2023-04-15T01:23:50;8.50;99.90
26503;DHT22;14177;51.520;6.764;2023-04-15T01:26:19;8.50;99.90
26503;DHT22;14177;51.520;6.764;2023-04-15T01:28:47;8.40;99.90
26503;DHT22;14177;51.520;6.764;2023-04-15T01:31:14;8.40;99.90
26503;DHT22;14177;51.520;6.764;2023-04-15T01:33:42;8.30;99.90
26503;DHT22;14177;51.520;6.764;2023-04-15T01:36:09;8.30;99.90
26503;DHT22;14177;51.520;6.764;2023-04-15T01:38:37;8.20;99.90
26503;DHT22;14177;51.520;6.764;2023-04-15T01:41:04;8.10;99.90
26503;DHT22;14177;51.520;6.764;2023-04-15T01:43:34;8.10;99.90
26503;DHT22;14177;51.520;6.764;2023-04-15T01:46:04;8.00;99.90
26503;DHT22;14177;51.520;6.764;2023-04-15T01:48:33;8.00;99.90
26503;DHT22;14177;51.520;6.764;2023-04-15T01:51:02;7.90;99.90
26503;DHT22;14177;51.520;6.764;2023-04-15T01:53:29;7.90;99.90
26503;DHT22;14177;51.520;6.764;2023-04-15T01:55:56;7.90;99.90
26503;DHT22;14177;51.520;6.764;2023-04-15T01:58:23;7.90;99.90
26503;DHT22;14177;51.520;6.764;2023-04-15T02:00:50;7.90;99.90
26503;DHT22;14177;51.520;6.764;2023-04-15T02:03:17;7.90;99.90
26503;DHT22;14177;51.520;6.764;2023-04-15T02:05:45;8.00;99.90
26503;DHT22;14177;51.520;6.764;2023-04-15T02:08:12;7.90;99.90
26503;DHT22;14177;51.520;6.764;2023-04-15T02:10:39;8.00;99.90
26503;DHT22;14177;51.520;6.764;2023-04-15T02:13:06;8.00;99.90
26503;DHT22;14177;51.520;6.764;2023-04-15T02:15:33;8.00;99.90
26503;DHT22;14177;51.520;6.764;2023-04-15T02:18:00;7.90;99.90
26503;DHT22;14177;51.520;6.764;2023-04-15T02:20:28;7.90;99.90
26503;DHT22;14177;51.520;6.764;2023-04-15T02:22:57;7.90;99.90
26503;DHT22;14177;51.520;6.764;2023-04-15T02:25:24;7.90;99.90
26503;DHT22;14177;51.520;6.764;2023-04-15T02:27:51;7.80;99.90
26503;DHT22;14177;51.520;6.764;2023-04-15T02:30:19;7.80;99.90
26503;DHT22;14177;51.520;6.764;2023-04-15T02:32:46;7.80;99.90
26503;DHT22;14177;51.520;6.764;2023-04-15T02:35:14;7.80;99.90
26503;DHT22;14177;51.520;6.764;2023-04-15T02:37:41;7.80;99.90
26503;DHT22;14177;51.520;6.764;2023-04-15T02:40:12;7.80;99.90
26503;DHT22;14177;51.520;6.764;2023-04-15T02:42:39;7.70;99.90
26503;DHT22;14177;51.520;6.764;2023-04-15T02:45:11;7.70;99.90
26503;DHT22;14177;51.520;6.764;2023-04-15T02:47:39;7.70;99.90
26503;DHT22;14177;51.520;6.764;2023-04-15T02:50:08;7.70;99.90
26503;DHT22;14177;51.520;6.764;2023-04-15T02:52:40;7.70;99.90
26503;DHT22;14177;51.520;6.764;2023-04-15T02:55:09;7.60;99.90
26503;DHT22;14177;51.520;6.764;2023-04-15T02:57:36;7.60;99.90
26503;DHT22;14177;51.520;6.764;2023-04-15T03:00:07;7.50;99.90
26503;DHT22;14177;51.520;6.764;2023-04-15T03:02:40;7.50;99.90
26503;DHT22;14177;51.520;6.764;2023-04-15T03:05:14;7.40;99.90
26503;DHT22;14177;51.520;6.764;2023-04-15T03:07:47;7.40;99.90
26503;DHT22;14177;51.520;6.764;2023-04-15T03:10:14;7.30;99.90
26503;DHT22;14177;51.520;6.764;2023-04-15T03:12:41;7.30;99.90
26503;DHT22;14177;51.520;6.764;2023-04-15T03:15:13;7.30;99.90
26503;DHT22;14177;51.520;6.764;2023-04-15T03:17:44;7.20;99.90
26503;DHT22;14177;51.520;6.764;2023-04-15T03:20:11;7.20;99.90
26503;DHT22;14177;51.520;6.764;2023-04-15T03:22:38;7.20;99.90
26503;DHT22;14177;51.520;6.764;2023-04-15T03:25:06;7.20;99.90
26503;DHT22;14177;51.520;6.764;2023-04-15T03:27:34;7.10;99.90
26503;DHT22;14177;51.520;6.764;2023-04-15T03:30:02;7.10;99.90
26503;DHT22;14177;51.520;6.764;2023-04-15T03:32:32;7.10;99.90
26503;DHT22;14177;51.520;6.764;2023-04-15T03:34:59;7.10;99.90
26503;DHT22;14177;51.520;6.764;2023-04-15T03:37:26;7.00;99.90
26503;DHT22;14177;51.520;6.764;2023-04-15T03:39:53;7.00;99.90
26503;DHT22;14177;51.520;6.764;2023-04-15T03:42:20;7.00;99.90
26503;DHT22;14177;51.520;6.764;2023-04-15T03:44:47;6.90;99.90
26503;DHT22;14177;51.520;6.764;2023-04-15T03:47:14;7.00;99.90
26503;DHT22;14177;51.520;6.764;2023-04-15T03:49:41;6.90;99.90
26503;DHT22;14177;51.520;6.764;2023-04-15T03:52:08;6.90;99.90
26503;DHT22;14177;51.520;6.764;2023-04-15T03:54:36;6.80;99.90
26503;DHT22;14177;51.520;6.764;2023-04-15T03:57:03;6.80;99.90
26503;DHT22;14177;51.520;6.764;2023-04-15T03:59:30;6.80;99.90
26503;DHT22;14177;51.520;6.764;2023-04-15T04:01:57;6.80;99.90
26503;DHT22;14177;51.520;6.764;2023-04-15T04:04:24;6.80;99.90
26503;DHT22;14177;51.520;6.764;2023-04-15T04:06:51;6.80;99.90
26503;DHT22;14177;51.520;6.764;2023-04-15T04:09:18;6.80;99.90
26503;DHT22;14177;51.520;6.764;2023-04-15T04:11:45;6.80;99.90
26503;DHT22;14177;51.520;6.764;2023-04-15T04:14:12;6.80;99.90
26503;DHT22;14177;51.520;6.764;2023-04-15T04:16:39;6.70;99.90
26503;DHT22;14177;51.520;6.764;2023-04-15T04:19:07;6.70;99.90
26503;DHT22;14177;51.520;6.764;2023-04-15T04:21:34;6.70;99.90
26503;DHT22;14177;51.520;6.764;2023-04-15T04:24:02;6.70;99.90
26503;DHT22;14177;51.520;6.764;2023-04-15T04:26:29;6.70;99.90
26503;DHT22;14177;51.520;6.764;2023-04-15T04:28:56;6.70;99.90
26503;DHT22;14177;51.520;6.764;2023-04-15T04:31:24;6.70;99.90
26503;DHT22;14177;51.520;6.764;2023-04-15T04:33:51;6.60;99.90
26503;DHT22;14177;51.520;6.764;2023-04-15T04:36:18;6.60;99.90
26503;DHT22;14177;51.520;6.764;2023-04-15T04:38:45;6.60;99.90
26503;DHT22;14177;51.520;6.764;2023-04-15T04:41:12;6.60;99.90
26503;DHT22;14177;51.520;6.764;2023-04-15T04:43:39;6.60;99.90
26503;DHT22;14177;51.520;6.764;2023-04-15T04:46:06;6.60;99.90
26503;DHT22;14177;51.520;6.764;2023-04-15T04:48:34;6.60;99.90
26503;DHT22;14177;51.520;6.764;2023-04-15T04:51:02;6.60;99.90
26503;DHT22;14177;51.520;6.764;2023-04-15T04:53:29;6.60;99.90
26503;DHT22;14177;51.520;6.764;2023-04-15T04:55:57;6.50;99.90
26503;DHT22;14177;51.520;6.764;2023-04-15T04:58:24;6.60;99.90
26503;DHT22;14177;51.520;6.764;2023-04-15T05:00:51;6.60;99.90
26503;DHT22;14177;51.520;6.764;2023-04-15T05:03:18;6.50;99.90
26503;DHT22;14177;51.520;6.764;2023-04-15T05:05:46;6.50;99.90
26503;DHT22;14177;51.520;6.764;2023-04-15T05:08:15;6.60;99.90
26503;DHT22;14177;51.520;6.764;2023-04-15T05:10:42;6.50;99.90
26503;DHT22;14177;51.520;6.764;2023-04-15T05:13:09;6.50;99.90
26503;DHT22;14177;51.520;6.764;2023-04-15T05:15:36;6.60;99.90
26503;DHT22;14177;51.520;6.764;2023-04-15T05:18:05;6.60;99.90
26503;DHT22;14177;51.520;6.764;2023-04-15T05:20:33;6.60;99.90
26503;DHT22;14177;51.520;6.764;2023-04-15T05:23:00;6.60;99.90
26503;DHT22;14177;51.520;6.764;2023-04-15T05:25:27;6.60;99.90
26503;DHT22;14177;51.520;6.764;2023-04-15T05:27:54;6.60;99.90
26503;DHT22;14177;51.520;6.764;2023-04-15T05:30:21;6.60;99.90
26503;DHT22;14177;51.520;6.764;2023-04-15T05:32:49;6.60;99.90
26503;DHT22;14177;51.520;6.764;2023-04-15T05:35:16;6.70;99.90
26503;DHT22;14177;51.520;6.764;2023-04-15T05:37:44;6.70;99.90
26503;DHT22;14177;51.520;6.764;2023-04-15T05:40:11;6.70;99.90
26503;DHT22;14177;51.520;6.764;2023-04-15T05:42:38;6.80;99.90
26503;DHT22;14177;51.520;6.764;2023-04-15T05:45:06;6.80;99.90
26503;DHT22;14177;51.520;6.764;2023-04-15T05:47:35;6.90;99.90
26503;DHT22;14177;51.520;6.764;2023-04-15T05:50:03;6.90;99.90
26503;DHT22;14177;51.520;6.764;2023-04-15T05:52:32;6.90;99.90
26503;DHT22;14177;51.520;6.764;2023-04-15T05:54:59;7.00;99.90
26503;DHT22;14177;51.520;6.764;2023-04-15T05:57:26;7.00;99.90
26503;DHT22;14177;51.520;6.764;2023-04-15T05:59:53;7.10;99.90
26503;DHT22;14177;51.520;6.764;2023-04-15T06:02:23;7.20;99.90
26503;DHT22;14177;51.520;6.764;2023-04-15T06:04:50;7.20;99.90
26503;DHT22;14177;51.520;6.764;2023-04-15T06:07:18;7.30;99.90
26503;DHT22;14177;51.520;6.764;2023-04-15T06:09:45;7.40;99.90
26503;DHT22;14177;51.520;6.764;2023-04-15T06:12:12;7.50;99.90
26503;DHT22;14177;51.520;6.764;2023-04-15T06:14:39;7.60;99.90
26503;DHT22;14177;51.520;6.764;2023-04-15T06:17:06;7.70;99.90
26503;DHT22;14177;51.520;6.764;2023-04-15T06:19:34;7.70;99.90
26503;DHT22;14177;51.520;6.764;2023-04-15T06:22:02;7.80;99.90
26503;DHT22;14177;51.520;6.764;2023-04-15T06:24:29;7.90;99.90
26503;DHT22;14177;51.520;6.764;2023-04-15T06:26:57;8.10;99.90
26503;DHT22;14177;51.520;6.764;2023-04-15T06:29:24;8.20;99.90
26503;DHT22;14177;51.520;6.764;2023-04-15T06:31:51;8.30;99.90
26503;DHT22;14177;51.520;6.764;2023-04-15T06:34:18;8.40;99.90
26503;DHT22;14177;51.520;6.764;2023-04-15T06:36:45;8.50;99.90
26503;DHT22;14177;51.520;6.764;2023-04-15T06:39:12;8.60;99.90
26503;DHT22;14177;51.520;6.764;2023-04-15T06:41:40;8.70;99.90
26503;DHT22;14177;51.520;6.764;2023-04-15T06:44:07;8.80;99.90
26503;DHT22;14177;51.520;6.764;2023-04-15T06:46:34;9.00;99.90
26503;DHT22;14177;51.520;6.764;2023-04-15T06:49:01;9.10;99.90
26503;DHT22;14177;51.520;6.764;2023-04-15T06:51:29;9.10;99.90
26503;DHT22;14177;51.520;6.764;2023-04-15T06:53:57;9.20;99.90
26503;DHT22;14177;51.520;6.764;2023-04-15T06:56:24;9.40;99.90
26503;DHT22;14177;51.520;6.764;2023-04-15T06:58:51;9.60;99.90
26503;DHT22;14177;51.520;6.764;2023-04-15T07:01:19;9.80;99.90
26503;DHT22;14177;51.520;6.764;2023-04-15T07:03:46;10.00;99.90
26503;DHT22;14177;51.520;6.764;2023-04-15T07:06:13;10.10;99.90
26503;DHT22;14177;51.520;6.764;2023-04-15T07:08:40;10.20;99.90
26503;DHT22;14177;51.520;6.764;2023-04-15T07:11:07;10.30;99.90
26503;DHT22;14177;51.520;6.764;2023-04-15T07:13:35;10.40;99.90
26503;DHT22;14177;51.520;6.764;2023-04-15T07:16:02;10.50;99.90
26503;DHT22;14177;51.520;6.764;2023-04-15T07:18:30;10.60;99.90
26503;DHT22;14177;51.520;6.764;2023-04-15T07:20:57;10.70;99.90
26503;DHT22;14177;51.520;6.764;2023-04-15T07:23:25;10.80;99.90
26503;DHT22;14177;51.520;6.764;2023-04-15T07:25:52;10.90;99.90
26503;DHT22;14177;51.520;6.764;2023-04-15T07:28:19;11.00;99.90
26503;DHT22;14177;51.520;6.764;2023-04-15T07:30:46;11.10;99.90
26503;DHT22;14177;51.520;6.764;2023-04-15T07:33:14;11.10;99.90
26503;DHT22;14177;51.520;6.764;2023-04-15T07:35:41;11.20;99.90
26503;DHT22;14177;51.520;6.764;2023-04-15T07:38:09;11.20;99.90
26503;DHT22;14177;51.520;6.764;2023-04-15T07:40:38;11.30;99.90
26503;DHT22;14177;51.520;6.764;2023-04-15T07:43:06;11.40;99.90
26503;DHT22;14177;51.520;6.764;2023-04-15T07:45:33;11.60;99.90
26503;DHT22;14177;51.520;6.764;2023-04-15T07:48:01;11.60;99.90
26503;DHT22;14177;51.520;6.764;2023-04-15T07:50:29;11.60;99.90
26503;DHT22;14177;51.520;6.764;2023-04-15T07:52:56;11.60;99.90
26503;DHT22;14177;51.520;6.764;2023-04-15T07:55:23;11.60;99.90
26503;DHT22;14177;51.520;6.764;2023-04-15T07:57:52;11.50;99.90
26503;DHT22;14177;51.520;6.764;2023-04-15T08:00:19;11.50;99.90
26503;DHT22;14177;51.520;6.764;2023-04-15T08:02:47;11.50;99.90
26503;DHT22;14177;51.520;6.764;2023-04-15T08:05:15;11.60;99.90
26503;DHT22;14177;51.520;6.764;2023-04-15T08:07:43;11.70;99.90
26503;DHT22;14177;51.520;6.764;2023-04-15T08:10:10;11.80;99.90
26503;DHT22;14177;51.520;6.764;2023-04-15T08:12:37;11.80;99.90
26503;DHT22;14177;51.520;6.764;2023-04-15T08:15:05;12.00;99.90
26503;DHT22;14177;51.520;6.764;2023-04-15T08:17:34;12.10;99.90
26503;DHT22;14177;51.520;6.764;2023-04-15T08:20:02;12.20;99.90
26503;DHT22;14177;51.520;6.764;2023-04-15T08:22:30;12.30;99.90
26503;DHT22;14177;51.520;6.764;2023-04-15T08:24:57;12.50;99.90
26503;DHT22;14177;51.520;6.764;2023-04-15T08:27:25;12.70;99.90
26503;DHT22;14177;51.520;6.764;2023-04-15T08:29:52;12.90;99.90
26503;DHT22;14177;51.520;6.764;2023-04-15T08:32:19;13.00;99.90
26503;DHT22;14177;51.520;6.764;2023-04-15T08:34:47;13.00;99.90
26503;DHT22;14177;51.520;6.764;2023-04-15T08:37:14;13.00;99.90
26503;DHT22;14177;51.520;6.764;2023-04-15T08:39:42;13.10;99.90
26503;DHT22;14177;51.520;6.764;2023-04-15T08:42:16;13.10;99.50
26503;DHT22;14177;51.520;6.764;2023-04-15T08:44:45;13.20;99.90
26503;DHT22;14177;51.520;6.764;2023-04-15T08:47:19;13.20;97.90
26503;DHT22;14177;51.520;6.764;2023-04-15T08:49:57;13.20;99.40
26503;DHT22;14177;51.520;6.764;2023-04-15T08:52:35;13.30;99.10
26503;DHT22;14177;51.520;6.764;2023-04-15T08:55:14;13.20;99.20
26503;DHT22;14177;51.520;6.764;2023-04-15T08:57:45;13.20;99.90
26503;DHT22;14177;51.520;6.764;2023-04-15T09:00:13;13.40;99.90
26503;DHT22;14177;51.520;6.764;2023-04-15T09:02:44;13.60;98.80
26503;DHT22;14177;51.520;6.764;2023-04-15T09:05:16;13.80;98.80
26503;DHT22;14177;51.520;6.764;2023-04-15T09:07:55;14.00;98.10
26503;DHT22;14177;51.520;6.764;2023-04-15T09:10:22;14.20;96.60
26503;DHT22;14177;51.520;6.764;2023-04-15T09:12:49;14.30;96.70
26503;DHT22;14177;51.520;6.764;2023-04-15T09:15:24;14.50;95.40
26503;DHT22;14177;51.520;6.764;2023-04-15T09:17:54;14.70;94.10
26503;DHT22;14177;51.520;6.764;2023-04-15T09:20:22;14.90;93.00
26503;DHT22;14177;51.520;6.764;2023-04-15T09:22:51;15.10;93.60
26503;DHT22;14177;51.520;6.764;2023-04-15T09:25:24;15.30;91.00
26503;DHT22;14177;51.520;6.764;2023-04-15T09:27:59;15.20;91.20
26503;DHT22;14177;51.520;6.764;2023-04-15T09:30:30;15.00;92.40
26503;DHT22;14177;51.520;6.764;2023-04-15T09:33:02;15.10;93.60
26503;DHT22;14177;51.520;6.764;2023-04-15T09:35:36;14.90;95.10
26503;DHT22;14177;51.520;6.764;2023-04-15T09:38:08;14.80;93.60
26503;DHT22;14177;51.520;6.764;2023-04-15T09:40:42;14.80;95.00
26503;DHT22;14177;51.520;6.764;2023-04-15T09:43:12;14.60;94.10
26503;DHT22;14177;51.520;6.764;2023-04-15T09:45:52;14.40;96.00
26503;DHT22;14177;51.520;6.764;2023-04-15T09:48:25;14.20;96.60
26503;DHT22;14177;51.520;6.764;2023-04-15T09:51:04;14.00;99.40
26503;DHT22;14177;51.520;6.764;2023-04-15T09:53:44;14.10;99.10
26503;DHT22;14177;51.520;6.764;2023-04-15T09:56:38;14.00;99.40
26503;DHT22;14177;51.520;6.764;2023-04-15T09:59:10;14.00;99.90
26503;DHT22;14177;51.520;6.764;2023-04-15T10:01:39;14.10;99.90
26503;DHT22;14177;51.520;6.764;2023-04-15T10:04:09;14.10;99.90
26503;DHT22;14177;51.520;6.764;2023-04-15T10:06:39;14.20;99.50
26503;DHT22;14177;51.520;6.764;2023-04-15T10:09:07;14.30;99.80
26503;DHT22;14177;51.520;6.764;2023-04-15T10:11:34;14.20;99.00
26503;DHT22;14177;51.520;6.764;2023-04-15T10:14:02;14.30;99.80
26503;DHT22;14177;51.520;6.764;2023-04-15T10:16:31;14.30;99.90
26503;DHT22;14177;51.520;6.764;2023-04-15T10:19:01;14.30;99.60
26503;DHT22;14177;51.520;6.764;2023-04-15T10:21:30;14.40;99.90
26503;DHT22;14177;51.520;6.764;2023-04-15T10:23:58;14.40;99.90
26503;DHT22;14177;51.520;6.764;2023-04-15T10:26:28;14.40;99.30
26503;DHT22;14177;51.520;6.764;2023-04-15T10:28:57;14.40;98.60
26503;DHT22;14177;51.520;6.764;2023-04-15T10:31:26;14.30;99.50
26503;DHT22;14177;51.520;6.764;2023-04-15T10:33:53;14.10;99.20
26503;DHT22;14177;51.520;6.764;2023-04-15T10:36:21;13.90;99.90
26503;DHT22;14177;51.520;6.764;2023-04-15T10:38:48;13.70;99.90
26503;DHT22;14177;51.520;6.764;2023-04-15T10:44:01;13.60;99.90
26503;DHT22;14177;51.520;6.764;2023-04-15T10:49:11;13.50;99.90
26503;DHT22;14177;51.520;6.764;2023-04-15T10:51:44;13.50;99.90
26503;DHT22;14177;51.520;6.764;2023-04-15T10:59:37;13.60;99.90
26503;DHT22;14177;51.520;6.764;2023-04-15T11:05:16;13.60;99.90
26503;DHT22;14177;51.520;6.764;2023-04-15T11:07:52;13.60;99.90
26503;DHT22;14177;51.520;6.764;2023-04-15T11:12:59;13.40;99.90
26503;DHT22;14177;51.520;6.764;2023-04-15T11:15:34;13.30;99.90
26503;DHT22;14177;51.520;6.764;2023-04-15T11:18:22;13.20;99.90
26503;DHT22;14177;51.520;6.764;2023-04-15T11:20:52;13.10;99.90
26503;DHT22;14177;51.520;6.764;2023-04-15T11:23:38;13.10;99.90
26503;DHT22;14177;51.520;6.764;2023-04-15T11:26:14;13.30;99.90
26503;DHT22;14177;51.520;6.764;2023-04-15T11:28:44;13.50;99.90
26503;DHT22;14177;51.520;6.764;2023-04-15T11:31:14;13.70;99.90
26503;DHT22;14177;51.520;6.764;2023-04-15T11:33:47;13.90;99.90
26503;DHT22;14177;51.520;6.764;2023-04-15T11:36:25;14.00;99.90
26503;DHT22;14177;51.520;6.764;2023-04-15T11:38:58;14.10;99.90
26503;DHT22;14177;51.520;6.764;2023-04-15T11:41:26;14.00;99.90
26503;DHT22;14177;51.520;6.764;2023-04-15T11:43:53;14.00;99.90
26503;DHT22;14177;51.520;6.764;2023-04-15T11:46:27;14.00;99.80
26503;DHT22;14177;51.520;6.764;2023-04-15T11:48:55;14.00;99.90
26503;DHT22;14177;51.520;6.764;2023-04-15T11:51:22;14.00;99.90
26503;DHT22;14177;51.520;6.764;2023-04-15T11:53:50;14.10;99.90
26503;DHT22;14177;51.520;6.764;2023-04-15T11:56:22;14.10;99.30
26503;DHT22;14177;51.520;6.764;2023-04-15T11:58:56;14.10;99.90
26503;DHT22;14177;51.520;6.764;2023-04-15T12:01:35;14.00;99.90
26503;DHT22;14177;51.520;6.764;2023-04-15T12:04:14;13.90;99.90
26503;DHT22;14177;51.520;6.764;2023-04-15T12:06:44;13.90;99.90
26503;DHT22;14177;51.520;6.764;2023-04-15T12:11:47;13.80;99.90
26503;DHT22;14177;51.520;6.764;2023-04-15T12:14:28;13.90;99.90
26503;DHT22;14177;51.520;6.764;2023-04-15T12:16:58;14.00;99.90
26503;DHT22;14177;51.520;6.764;2023-04-15T12:19:34;14.10;99.90
26503;DHT22;14177;51.520;6.764;2023-04-15T12:22:04;14.10;99.90
26503;DHT22;14177;51.520;6.764;2023-04-15T12:24:33;14.10;99.90
26503;DHT22;14177;51.520;6.764;2023-04-15T12:27:03;13.90;99.90
26503;DHT22;14177;51.520;6.764;2023-04-15T12:29:34;13.80;99.90
26503;DHT22;14177;51.520;6.764;2023-04-15T12:34:44;13.80;99.90
26503;DHT22;14177;51.520;6.764;2023-04-15T12:37:17;13.90;99.90
26503;DHT22;14177;51.520;6.764;2023-04-15T12:39:47;13.90;99.90
26503;DHT22;14177;51.520;6.764;2023-04-15T12:42:16;13.90;99.90
26503;DHT22;14177;51.520;6.764;2023-04-15T12:44:44;14.00;99.90
26503;DHT22;14177;51.520;6.764;2023-04-15T12:47:16;14.00;99.90
26503;DHT22;14177;51.520;6.764;2023-04-15T12:49:43;13.90;99.90
26503;DHT22;14177;51.520;6.764;2023-04-15T12:52:11;13.70;99.90
26503;DHT22;14177;51.520;6.764;2023-04-15T12:54:39;13.50;99.90
26503;DHT22;14177;51.520;6.764;2023-04-15T12:57:06;13.40;99.90
26503;DHT22;14177;51.520;6.764;2023-04-15T12:59:34;13.20;99.90
26503;DHT22;14177;51.520;6.764;2023-04-15T13:02:02;13.10;99.90
26503;DHT22;14177;51.520;6.764;2023-04-15T13:04:30;13.00;99.90
26503;DHT22;14177;51.520;6.764;2023-04-15T13:06:57;13.00;99.90
26503;DHT22;14177;51.520;6.764;2023-04-15T13:09:25;13.00;99.90
26503;DHT22;14177;51.520;6.764;2023-04-15T13:11:52;13.00;99.90
26503;DHT22;14177;51.520;6.764;2023-04-15T13:14:19;13.10;99.90
26503;DHT22;14177;51.520;6.764;2023-04-15T13:16:46;13.10;99.90
26503;DHT22;14177;51.520;6.764;2023-04-15T13:19:14;13.00;99.90
26503;DHT22;14177;51.520;6.764;2023-04-15T13:21:41;12.90;99.90
26503;DHT22;14177;51.520;6.764;2023-04-15T13:24:09;12.80;99.90
26503;DHT22;14177;51.520;6.764;2023-04-15T13:26:36;12.80;99.90
26503;DHT22;14177;51.520;6.764;2023-04-15T13:29:03;12.80;99.90
26503;DHT22;14177;51.520;6.764;2023-04-15T13:31:30;12.80;99.90
26503;DHT22;14177;51.520;6.764;2023-04-15T13:33:57;12.70;99.90
26503;DHT22;14177;51.520;6.764;2023-04-15T13:36:24;12.70;99.90
26503;DHT22;14177;51.520;6.764;2023-04-15T13:38:53;12.60;99.90
26503;DHT22;14177;51.520;6.764;2023-04-15T13:41:20;12.50;99.90
26503;DHT22;14177;51.520;6.764;2023-04-15T13:43:47;12.40;99.90
26503;DHT22;14177;51.520;6.764;2023-04-15T13:46:14;12.40;99.90
26503;DHT22;14177;51.520;6.764;2023-04-15T13:48:41;12.40;99.90
26503;DHT22;14177;51.520;6.764;2023-04-15T13:51:08;12.40;99.90
26503;DHT22;14177;51.520;6.764;2023-04-15T13:53:36;12.40;99.90
26503;DHT22;14177;51.520;6.764;2023-04-15T13:56:06;12.40;99.90
26503;DHT22;14177;51.520;6.764;2023-04-15T13:58:35;12.30;99.90
26503;DHT22;14177;51.520;6.764;2023-04-15T14:01:03;12.30;99.90
26503;DHT22;14177;51.520;6.764;2023-04-15T14:03:36;12.30;99.90
26503;DHT22;14177;51.520;6.764;2023-04-15T14:06:04;12.20;99.90
26503;DHT22;14177;51.520;6.764;2023-04-15T14:08:32;12.20;99.90
26503;DHT22;14177;51.520;6.764;2023-04-15T14:10:59;12.20;99.90
26503;DHT22;14177;51.520;6.764;2023-04-15T14:13:26;12.20;99.90
26503;DHT22;14177;51.520;6.764;2023-04-15T14:15:53;12.10;99.90
26503;DHT22;14177;51.520;6.764;2023-04-15T14:18:22;12.20;99.90
26503;DHT22;14177;51.520;6.764;2023-04-15T14:20:49;12.20;99.90
26503;DHT22;14177;51.520;6.764;2023-04-15T14:23:16;12.20;99.90
26503;DHT22;14177;51.520;6.764;2023-04-15T14:25:44;12.20;99.90
26503;DHT22;14177;51.520;6.764;2023-04-15T14:28:14;12.20;99.90
26503;DHT22;14177;51.520;6.764;2023-04-15T14:30:41;12.10;99.90
26503;DHT22;14177;51.520;6.764;2023-04-15T14:33:09;12.10;99.90
26503;DHT22;14177;51.520;6.764;2023-04-15T14:35:36;12.10;99.90
26503;DHT22;14177;51.520;6.764;2023-04-15T14:38:03;12.20;99.90
26503;DHT22;14177;51.520;6.764;2023-04-15T14:40:32;12.20;99.90
26503;DHT22;14177;51.520;6.764;2023-04-15T14:42:59;12.10;99.90
26503;DHT22;14177;51.520;6.764;2023-04-15T14:45:26;12.10;99.90
26503;DHT22;14177;51.520;6.764;2023-04-15T14:47:53;12.10;99.90
26503;DHT22;14177;51.520;6.764;2023-04-15T14:50:20;12.10;99.90
26503;DHT22;14177;51.520;6.764;2023-04-15T14:52:47;12.00;99.90
26503;DHT22;14177;51.520;6.764;2023-04-15T14:55:14;12.00;99.90
26503;DHT22;14177;51.520;6.764;2023-04-15T14:57:42;12.00;99.90
26503;DHT22;14177;51.520;6.764;2023-04-15T15:00:10;12.00;99.90
26503;DHT22;14177;51.520;6.764;2023-04-15T15:02:41;12.10;99.90
26503;DHT22;14177;51.520;6.764;2023-04-15T15:05:09;12.10;99.90
26503;DHT22;14177;51.520;6.764;2023-04-15T15:07:39;12.20;99.90
26503;DHT22;14177;51.520;6.764;2023-04-15T15:10:07;12.10;99.90
26503;DHT22;14177;51.520;6.764;2023-04-15T15:12:34;12.10;99.90
26503;DHT22;14177;51.520;6.764;2023-04-15T15:15:02;12.10;99.90
26503;DHT22;14177;51.520;6.764;2023-04-15T15:17:41;12.10;99.90
26503;DHT22;14177;51.520;6.764;2023-04-15T15:20:09;12.10;99.90
26503;DHT22;14177;51.520;6.764;2023-04-15T15:22:36;12.00;99.90
26503;DHT22;14177;51.520;6.764;2023-04-15T15:25:03;12.10;99.90
26503;DHT22;14177;51.520;6.764;2023-04-15T15:27:31;12.00;99.90
26503;DHT22;14177;51.520;6.764;2023-04-15T15:29:58;12.00;99.90
26503;DHT22;14177;51.520;6.764;2023-04-15T15:32:25;11.90;99.90
26503;DHT22;14177;51.520;6.764;2023-04-15T15:34:52;11.90;99.90
26503;DHT22;14177;51.520;6.764;2023-04-15T15:37:19;11.70;99.90
26503;DHT22;14177;51.520;6.764;2023-04-15T15:39:47;11.70;99.90
26503;DHT22;14177;51.520;6.764;2023-04-15T15:42:15;11.70;99.90
26503;DHT22;14177;51.520;6.764;2023-04-15T15:44:42;11.70;99.90
26503;DHT22;14177;51.520;6.764;2023-04-15T15:47:10;11.60;99.90
26503;DHT22;14177;51.520;6.764;2023-04-15T15:49:43;11.60;99.90
26503;DHT22;14177;51.520;6.764;2023-04-15T15:53:42;11.50;99.90
26503;DHT22;14177;51.520;6.764;2023-04-15T15:56:57;11.40;99.90
26503;DHT22;14177;51.520;6.764;2023-04-15T16:03:28;11.30;99.90
26503;DHT22;14177;51.520;6.764;2023-04-15T16:05:56;11.20;99.90
26503;DHT22;14177;51.520;6.764;2023-04-15T16:08:23;11.10;99.90
26503;DHT22;14177;51.520;6.764;2023-04-15T16:10:50;11.10;99.90
26503;DHT22;14177;51.520;6.764;2023-04-15T16:13:17;11.00;99.90
26503;DHT22;14177;51.520;6.764;2023-04-15T16:15:44;11.00;99.90